sensor_id;sensor_type;location;lat;lon;timestamp;P1;durP1;ratioP1;P2;durP2;ratioP2
52978;SDS011;63430;53.186;6.598;2024-03-17T00:01:13;19.90;;;6.82;;
52978;SDS011;63430;53.186;6.598;2024-03-17T00:06:15;11.00;;;6.18;;
52978;SDS011;63430;53.186;6.598;2024-03-17T00:11:21;18.25;;;11.13;;
52978;SDS011;63430;53.186;6.598;2024-03-17T00:16:22;22.33;;;12.75;;
52978;SDS011;63430;53.186;6.598;2024-03-17T00:21:24;20.63;;;13.23;;
52978;SDS011;63430;53.186;6.598;2024-03-17T00:26:29;33.00;;;25.30;;
52978;SDS011;63430;53.186;6.598;2024-03-17T00:31:31;36.45;;;25.20;;
52978;SDS011;63430;53.186;6.598;2024-03-17T00:36:32;30.00;;;19.45;;
52978;SDS011;63430;53.186;6.598;2024-03-17T00:41:39;24.73;;;17.30;;
52978;SDS011;63430;53.186;6.598;2024-03-17T00:46:46;20.70;;;14.40;;
52978;SDS011;63430;53.186;6.598;2024-03-17T00:51:47;19.35;;;13.63;;
52978;SDS011;63430;53.186;6.598;2024-03-17T00:56:53;20.52;;;11.10;;
52978;SDS011;63430;53.186;6.598;2024-03-17T01:01:54;12.95;;;7.95;;
52978;SDS011;63430;53.186;6.598;2024-03-17T01:06:56;14.10;;;9.45;;
52978;SDS011;63430;53.186;6.598;2024-03-17T01:12:01;18.55;;;9.15;;
52978;SDS011;63430;53.186;6.598;2024-03-17T01:17:02;18.70;;;10.32;;
52978;SDS011;63430;53.186;6.598;2024-03-17T01:22:07;17.60;;;10.63;;
52978;SDS011;63430;53.186;6.598;2024-03-17T01:27:11;17.80;;;12.75;;
52978;SDS011;63430;53.186;6.598;2024-03-17T01:32:15;24.50;;;15.70;;
52978;SDS011;63430;53.186;6.598;2024-03-17T01:37:16;21.48;;;12.70;;
52978;SDS011;63430;53.186;6.598;2024-03-17T01:42:21;14.85;;;10.38;;
52978;SDS011;63430;53.186;6.598;2024-03-17T01:47:22;10.80;;;7.82;;
52978;SDS011;63430;53.186;6.598;2024-03-17T01:52:25;10.23;;;7.32;;
52978;SDS011;63430;53.186;6.598;2024-03-17T01:57:29;12.15;;;7.18;;
52978;SDS011;63430;53.186;6.598;2024-03-17T02:02:31;11.07;;;6.05;;
52978;SDS011;63430;53.186;6.598;2024-03-17T02:07:32;11.73;;;5.35;;
52978;SDS011;63430;53.186;6.598;2024-03-17T02:12:38;10.98;;;5.78;;
52978;SDS011;63430;53.186;6.598;2024-03-17T02:17:40;11.50;;;5.47;;
52978;SDS011;63430;53.186;6.598;2024-03-17T02:22:44;8.98;;;5.40;;
52978;SDS011;63430;53.186;6.598;2024-03-17T02:27:45;11.75;;;5.60;;
52978;SDS011;63430;53.186;6.598;2024-03-17T02:32:51;10.02;;;4.70;;
52978;SDS011;63430;53.186;6.598;2024-03-17T02:37:55;13.07;;;5.28;;
52978;SDS011;63430;53.186;6.598;2024-03-17T02:42:57;15.88;;;5.63;;
52978;SDS011;63430;53.186;6.598;2024-03-17T02:47:58;10.40;;;5.00;;
52978;SDS011;63430;53.186;6.598;2024-03-17T02:53:03;7.93;;;4.72;;
52978;SDS011;63430;53.186;6.598;2024-03-17T02:58:05;9.30;;;4.82;;
52978;SDS011;63430;53.186;6.598;2024-03-17T03:03:07;6.95;;;4.15;;
52978;SDS011;63430;53.186;6.598;2024-03-17T03:08:11;8.07;;;4.32;;
52978;SDS011;63430;53.186;6.598;2024-03-17T03:13:14;10.93;;;4.80;;
52978;SDS011;63430;53.186;6.598;2024-03-17T03:18:17;8.45;;;4.63;;
52978;SDS011;63430;53.186;6.598;2024-03-17T03:23:21;8.38;;;4.85;;
52978;SDS011;63430;53.186;6.598;2024-03-17T03:28:23;6.65;;;4.40;;
52978;SDS011;63430;53.186;6.598;2024-03-17T03:33:25;6.03;;;4.07;;
52978;SDS011;63430;53.186;6.598;2024-03-17T03:38:30;8.05;;;4.78;;
52978;SDS011;63430;53.186;6.598;2024-03-17T03:43:32;6.78;;;4.32;;
52978;SDS011;63430;53.186;6.598;2024-03-17T03:48:33;10.70;;;3.88;;
52978;SDS011;63430;53.186;6.598;2024-03-17T03:53:38;10.65;;;4.30;;
52978;SDS011;63430;53.186;6.598;2024-03-17T03:58:41;9.95;;;4.18;;
52978;SDS011;63430;53.186;6.598;2024-03-17T04:03:44;10.25;;;4.50;;
52978;SDS011;63430;53.186;6.598;2024-03-17T04:08:48;9.30;;;4.20;;
52978;SDS011;63430;53.186;6.598;2024-03-17T04:13:50;10.98;;;4.65;;
52978;SDS011;63430;53.186;6.598;2024-03-17T04:18:53;7.60;;;4.05;;
52978;SDS011;63430;53.186;6.598;2024-03-17T04:23:57;8.90;;;4.30;;
52978;SDS011;63430;53.186;6.598;2024-03-17T04:28:58;10.50;;;3.60;;
52978;SDS011;63430;53.186;6.598;2024-03-17T04:34:01;7.55;;;3.30;;
52978;SDS011;63430;53.186;6.598;2024-03-17T04:39:05;8.27;;;3.53;;
52978;SDS011;63430;53.186;6.598;2024-03-17T04:44:09;9.43;;;3.35;;
52978;SDS011;63430;53.186;6.598;2024-03-17T04:49:10;6.47;;;3.10;;
52978;SDS011;63430;53.186;6.598;2024-03-17T04:54:14;6.88;;;3.00;;
52978;SDS011;63430;53.186;6.598;2024-03-17T04:59:16;5.75;;;3.22;;
52978;SDS011;63430;53.186;6.598;2024-03-17T05:04:17;11.02;;;3.42;;
52978;SDS011;63430;53.186;6.598;2024-03-17T05:09:22;10.00;;;3.33;;
52978;SDS011;63430;53.186;6.598;2024-03-17T05:14:24;9.52;;;3.30;;
52978;SDS011;63430;53.186;6.598;2024-03-17T05:19:26;7.35;;;4.05;;
52978;SDS011;63430;53.186;6.598;2024-03-17T05:24:31;10.85;;;4.50;;
52978;SDS011;63430;53.186;6.598;2024-03-17T05:29:32;12.93;;;4.45;;
52978;SDS011;63430;53.186;6.598;2024-03-17T05:34:38;11.93;;;5.22;;
52978;SDS011;63430;53.186;6.598;2024-03-17T05:39:42;13.70;;;5.80;;
52978;SDS011;63430;53.186;6.598;2024-03-17T05:44:44;13.63;;;6.20;;
52978;SDS011;63430;53.186;6.598;2024-03-17T05:49:53;14.40;;;6.28;;
52978;SDS011;63430;53.186;6.598;2024-03-17T05:54:59;12.82;;;6.20;;
52978;SDS011;63430;53.186;6.598;2024-03-17T06:00:00;15.85;;;7.35;;
52978;SDS011;63430;53.186;6.598;2024-03-17T06:05:02;11.77;;;6.90;;
52978;SDS011;63430;53.186;6.598;2024-03-17T06:10:08;13.68;;;6.70;;
52978;SDS011;63430;53.186;6.598;2024-03-17T06:15:11;19.05;;;8.50;;
52978;SDS011;63430;53.186;6.598;2024-03-17T06:20:12;15.32;;;8.60;;
52978;SDS011;63430;53.186;6.598;2024-03-17T06:25:16;15.07;;;8.32;;
52978;SDS011;63430;53.186;6.598;2024-03-17T06:30:19;20.92;;;9.15;;
52978;SDS011;63430;53.186;6.598;2024-03-17T06:35:20;14.88;;;8.27;;
52978;SDS011;63430;53.186;6.598;2024-03-17T06:40:28;16.67;;;8.15;;
52978;SDS011;63430;53.186;6.598;2024-03-17T06:45:31;16.40;;;8.45;;
52978;SDS011;63430;53.186;6.598;2024-03-17T06:50:33;16.45;;;7.03;;
52978;SDS011;63430;53.186;6.598;2024-03-17T06:55:37;11.90;;;7.18;;
52978;SDS011;63430;53.186;6.598;2024-03-17T07:00:39;13.45;;;6.85;;
52978;SDS011;63430;53.186;6.598;2024-03-17T07:05:40;12.52;;;6.38;;
52978;SDS011;63430;53.186;6.598;2024-03-17T07:10:44;17.25;;;6.57;;
52978;SDS011;63430;53.186;6.598;2024-03-17T07:15:57;17.95;;;6.38;;
52978;SDS011;63430;53.186;6.598;2024-03-17T07:21:00;16.35;;;6.50;;
52978;SDS011;63430;53.186;6.598;2024-03-17T07:26:13;11.70;;;4.97;;
52978;SDS011;63430;53.186;6.598;2024-03-17T07:31:15;15.23;;;5.80;;
52978;SDS011;63430;53.186;6.598;2024-03-17T07:36:16;12.27;;;4.25;;
52978;SDS011;63430;53.186;6.598;2024-03-17T07:41:20;12.98;;;4.68;;
52978;SDS011;63430;53.186;6.598;2024-03-17T07:46:22;11.77;;;4.30;;
52978;SDS011;63430;53.186;6.598;2024-03-17T07:51:23;12.18;;;4.15;;
52978;SDS011;63430;53.186;6.598;2024-03-17T07:56:27;8.30;;;3.83;;
52978;SDS011;63430;53.186;6.598;2024-03-17T08:01:29;12.70;;;4.20;;
52978;SDS011;63430;53.186;6.598;2024-03-17T08:06:31;13.65;;;4.10;;
52978;SDS011;63430;53.186;6.598;2024-03-17T08:11:35;14.45;;;4.13;;
52978;SDS011;63430;53.186;6.598;2024-03-17T08:16:37;8.27;;;2.90;;
52978;SDS011;63430;53.186;6.598;2024-03-17T08:21:40;11.27;;;3.95;;
52978;SDS011;63430;53.186;6.598;2024-03-17T08:26:44;12.98;;;3.20;;
52978;SDS011;63430;53.186;6.598;2024-03-17T08:31:46;10.15;;;3.75;;
52978;SDS011;63430;53.186;6.598;2024-03-17T08:36:47;11.70;;;3.47;;
52978;SDS011;63430;53.186;6.598;2024-03-17T08:41:51;10.77;;;3.25;;
52978;SDS011;63430;53.186;6.598;2024-03-17T08:46:53;11.02;;;3.38;;
52978;SDS011;63430;53.186;6.598;2024-03-17T08:51:54;15.52;;;3.70;;
52978;SDS011;63430;53.186;6.598;2024-03-17T08:56:58;10.43;;;3.67;;
52978;SDS011;63430;53.186;6.598;2024-03-17T09:02:00;9.27;;;3.60;;
52978;SDS011;63430;53.186;6.598;2024-03-17T09:07:01;9.95;;;3.70;;
52978;SDS011;63430;53.186;6.598;2024-03-17T09:12:07;8.48;;;3.20;;
52978;SDS011;63430;53.186;6.598;2024-03-17T09:17:10;10.50;;;3.75;;
52978;SDS011;63430;53.186;6.598;2024-03-17T09:22:12;10.05;;;3.95;;
52978;SDS011;63430;53.186;6.598;2024-03-17T09:27:16;9.25;;;4.07;;
52978;SDS011;63430;53.186;6.598;2024-03-17T09:32:20;7.90;;;4.70;;
52978;SDS011;63430;53.186;6.598;2024-03-17T09:37:24;10.93;;;4.45;;
52978;SDS011;63430;53.186;6.598;2024-03-17T09:42:29;10.35;;;4.68;;
52978;SDS011;63430;53.186;6.598;2024-03-17T09:47:31;8.70;;;4.60;;
52978;SDS011;63430;53.186;6.598;2024-03-17T09:52:32;9.82;;;4.65;;
52978;SDS011;63430;53.186;6.598;2024-03-17T09:57:38;10.65;;;4.60;;
52978;SDS011;63430;53.186;6.598;2024-03-17T10:02:41;9.70;;;4.32;;
52978;SDS011;63430;53.186;6.598;2024-03-17T10:07:44;10.38;;;4.80;;
52978;SDS011;63430;53.186;6.598;2024-03-17T10:12:51;17.02;;;5.22;;
52978;SDS011;63430;53.186;6.598;2024-03-17T10:17:53;11.15;;;5.55;;
52978;SDS011;63430;53.186;6.598;2024-03-17T10:23:00;10.75;;;5.28;;
52978;SDS011;63430;53.186;6.598;2024-03-17T10:28:12;15.43;;;6.70;;
52978;SDS011;63430;53.186;6.598;2024-03-17T10:33:21;15.27;;;6.93;;
52978;SDS011;63430;53.186;6.598;2024-03-17T10:38:26;11.15;;;6.55;;
52978;SDS011;63430;53.186;6.598;2024-03-17T10:43:33;11.68;;;6.28;;
52978;SDS011;63430;53.186;6.598;2024-03-17T10:48:36;11.45;;;7.00;;
52978;SDS011;63430;53.186;6.598;2024-03-17T10:53:39;13.90;;;7.18;;
52978;SDS011;63430;53.186;6.598;2024-03-17T10:58:44;15.25;;;6.93;;
52978;SDS011;63430;53.186;6.598;2024-03-17T11:03:56;13.45;;;7.68;;
52978;SDS011;63430;53.186;6.598;2024-03-17T11:09:01;12.43;;;8.13;;
52978;SDS011;63430;53.186;6.598;2024-03-17T11:14:24;14.85;;;7.70;;
52978;SDS011;63430;53.186;6.598;2024-03-17T11:19:28;12.23;;;7.72;;
52978;SDS011;63430;53.186;6.598;2024-03-17T11:24:30;15.07;;;7.57;;
52978;SDS011;63430;53.186;6.598;2024-03-17T11:29:34;13.38;;;8.05;;
52978;SDS011;63430;53.186;6.598;2024-03-17T11:34:36;11.82;;;7.53;;
52978;SDS011;63430;53.186;6.598;2024-03-17T11:39:47;12.90;;;8.43;;
52978;SDS011;63430;53.186;6.598;2024-03-17T11:45:09;12.30;;;8.97;;
52978;SDS011;63430;53.186;6.598;2024-03-17T11:50:16;14.00;;;8.95;;
52978;SDS011;63430;53.186;6.598;2024-03-17T11:55:19;13.30;;;9.38;;
52978;SDS011;63430;53.186;6.598;2024-03-17T12:00:23;12.90;;;9.65;;
52978;SDS011;63430;53.186;6.598;2024-03-17T12:05:26;14.85;;;9.52;;
52978;SDS011;63430;53.186;6.598;2024-03-17T12:10:28;14.27;;;9.98;;
52978;SDS011;63430;53.186;6.598;2024-03-17T12:15:37;12.82;;;10.23;;
52978;SDS011;63430;53.186;6.598;2024-03-17T12:20:39;12.35;;;8.85;;
52978;SDS011;63430;53.186;6.598;2024-03-17T12:25:42;10.80;;;8.57;;
52978;SDS011;63430;53.186;6.598;2024-03-17T12:30:50;11.65;;;9.18;;
52978;SDS011;63430;53.186;6.598;2024-03-17T12:35:54;15.30;;;9.80;;
52978;SDS011;63430;53.186;6.598;2024-03-17T12:41:01;14.53;;;9.43;;
52978;SDS011;63430;53.186;6.598;2024-03-17T12:46:11;11.80;;;9.27;;
52978;SDS011;63430;53.186;6.598;2024-03-17T12:51:14;13.23;;;10.32;;
52978;SDS011;63430;53.186;6.598;2024-03-17T12:56:22;16.55;;;10.90;;
52978;SDS011;63430;53.186;6.598;2024-03-17T13:01:45;15.00;;;11.32;;
52978;SDS011;63430;53.186;6.598;2024-03-17T13:06:46;14.57;;;10.80;;
52978;SDS011;63430;53.186;6.598;2024-03-17T13:11:50;13.88;;;10.20;;
52978;SDS011;63430;53.186;6.598;2024-03-17T13:16:54;15.13;;;10.55;;
52978;SDS011;63430;53.186;6.598;2024-03-17T13:21:56;13.07;;;10.48;;
52978;SDS011;63430;53.186;6.598;2024-03-17T13:26:58;14.45;;;11.00;;
52978;SDS011;63430;53.186;6.598;2024-03-17T13:32:07;15.05;;;10.50;;
52978;SDS011;63430;53.186;6.598;2024-03-17T13:37:09;13.35;;;10.15;;
52978;SDS011;63430;53.186;6.598;2024-03-17T13:42:10;12.65;;;10.30;;
52978;SDS011;63430;53.186;6.598;2024-03-17T13:47:15;14.10;;;10.65;;
52978;SDS011;63430;53.186;6.598;2024-03-17T13:52:17;14.20;;;10.30;;
52978;SDS011;63430;53.186;6.598;2024-03-17T13:57:22;15.82;;;10.45;;
52978;SDS011;63430;53.186;6.598;2024-03-17T14:02:26;12.50;;;9.48;;
52978;SDS011;63430;53.186;6.598;2024-03-17T14:07:28;11.30;;;9.35;;
52978;SDS011;63430;53.186;6.598;2024-03-17T14:12:30;15.55;;;10.55;;
52978;SDS011;63430;53.186;6.598;2024-03-17T14:17:34;12.43;;;10.48;;
52978;SDS011;63430;53.186;6.598;2024-03-17T14:22:37;15.55;;;10.30;;
52978;SDS011;63430;53.186;6.598;2024-03-17T14:27:38;12.68;;;9.93;;
52978;SDS011;63430;53.186;6.598;2024-03-17T14:32:42;12.85;;;9.38;;
52978;SDS011;63430;53.186;6.598;2024-03-17T14:37:44;12.00;;;9.60;;
52978;SDS011;63430;53.186;6.598;2024-03-17T14:42:48;13.45;;;10.07;;
52978;SDS011;63430;53.186;6.598;2024-03-17T14:47:54;12.75;;;9.20;;
52978;SDS011;63430;53.186;6.598;2024-03-17T14:52:55;12.57;;;9.35;;
52978;SDS011;63430;53.186;6.598;2024-03-17T14:57:57;10.00;;;8.60;;
52978;SDS011;63430;53.186;6.598;2024-03-17T15:03:02;10.60;;;8.45;;
52978;SDS011;63430;53.186;6.598;2024-03-17T15:08:04;13.02;;;8.75;;
52978;SDS011;63430;53.186;6.598;2024-03-17T15:13:06;12.30;;;9.90;;
52978;SDS011;63430;53.186;6.598;2024-03-17T15:18:10;11.38;;;9.00;;
52978;SDS011;63430;53.186;6.598;2024-03-17T15:23:14;11.93;;;9.32;;
52978;SDS011;63430;53.186;6.598;2024-03-17T15:28:16;12.30;;;8.68;;
52978;SDS011;63430;53.186;6.598;2024-03-17T15:33:21;12.05;;;8.88;;
52978;SDS011;63430;53.186;6.598;2024-03-17T15:38:23;11.18;;;9.13;;
52978;SDS011;63430;53.186;6.598;2024-03-17T15:43:24;15.73;;;10.40;;
52978;SDS011;63430;53.186;6.598;2024-03-17T15:48:30;15.25;;;10.10;;
52978;SDS011;63430;53.186;6.598;2024-03-17T15:53:32;12.02;;;9.65;;
52978;SDS011;63430;53.186;6.598;2024-03-17T15:58:34;13.68;;;10.75;;
52978;SDS011;63430;53.186;6.598;2024-03-17T16:03:38;15.73;;;11.27;;
52978;SDS011;63430;53.186;6.598;2024-03-17T16:08:42;16.30;;;11.77;;
52978;SDS011;63430;53.186;6.598;2024-03-17T16:13:46;13.80;;;10.65;;
52978;SDS011;63430;53.186;6.598;2024-03-17T16:18:51;14.20;;;10.68;;
52978;SDS011;63430;53.186;6.598;2024-03-17T16:23:55;14.60;;;11.90;;
52978;SDS011;63430;53.186;6.598;2024-03-17T16:29:02;16.50;;;11.18;;
52978;SDS011;63430;53.186;6.598;2024-03-17T16:34:06;12.55;;;10.43;;
52978;SDS011;63430;53.186;6.598;2024-03-17T16:39:08;12.63;;;10.27;;
52978;SDS011;63430;53.186;6.598;2024-03-17T16:44:13;13.85;;;9.80;;
52978;SDS011;63430;53.186;6.598;2024-03-17T16:49:21;13.95;;;11.30;;
52978;SDS011;63430;53.186;6.598;2024-03-17T16:54:24;16.27;;;10.88;;
52978;SDS011;63430;53.186;6.598;2024-03-17T16:59:26;13.95;;;10.90;;
52978;SDS011;63430;53.186;6.598;2024-03-17T17:04:30;17.75;;;12.32;;
52978;SDS011;63430;53.186;6.598;2024-03-17T17:09:31;17.15;;;12.10;;
52978;SDS011;63430;53.186;6.598;2024-03-17T17:14:33;16.02;;;10.95;;
52978;SDS011;63430;53.186;6.598;2024-03-17T17:19:45;16.50;;;12.40;;
52978;SDS011;63430;53.186;6.598;2024-03-17T17:24:50;17.88;;;11.52;;
52978;SDS011;63430;53.186;6.598;2024-03-17T17:29:52;17.02;;;11.38;;
52978;SDS011;63430;53.186;6.598;2024-03-17T17:34:56;17.20;;;11.98;;
52978;SDS011;63430;53.186;6.598;2024-03-17T17:39:57;16.27;;;12.40;;
52978;SDS011;63430;53.186;6.598;2024-03-17T17:44:58;17.38;;;11.90;;
52978;SDS011;63430;53.186;6.598;2024-03-17T17:50:03;19.08;;;11.70;;
52978;SDS011;63430;53.186;6.598;2024-03-17T17:55:07;16.63;;;12.45;;
52978;SDS011;63430;53.186;6.598;2024-03-17T18:00:09;19.50;;;13.20;;
52978;SDS011;63430;53.186;6.598;2024-03-17T18:05:14;17.30;;;12.70;;
52978;SDS011;63430;53.186;6.598;2024-03-17T18:10:17;20.23;;;12.43;;
52978;SDS011;63430;53.186;6.598;2024-03-17T18:15:19;17.83;;;12.93;;
52978;SDS011;63430;53.186;6.598;2024-03-17T18:20:24;16.05;;;12.32;;
52978;SDS011;63430;53.186;6.598;2024-03-17T18:25:29;18.15;;;12.25;;
52978;SDS011;63430;53.186;6.598;2024-03-17T18:30:33;17.90;;;13.60;;
52978;SDS011;63430;53.186;6.598;2024-03-17T18:35:42;19.83;;;13.00;;
52978;SDS011;63430;53.186;6.598;2024-03-17T18:40:46;19.65;;;13.35;;
52978;SDS011;63430;53.186;6.598;2024-03-17T18:45:51;20.10;;;13.45;;
52978;SDS011;63430;53.186;6.598;2024-03-17T18:51:00;20.67;;;13.32;;
52978;SDS011;63430;53.186;6.598;2024-03-17T18:56:03;16.67;;;12.48;;
52978;SDS011;63430;53.186;6.598;2024-03-17T19:01:05;19.85;;;13.07;;
52978;SDS011;63430;53.186;6.598;2024-03-17T19:06:09;18.77;;;13.40;;
52978;SDS011;63430;53.186;6.598;2024-03-17T19:11:11;19.00;;;13.48;;
52978;SDS011;63430;53.186;6.598;2024-03-17T19:16:15;17.30;;;13.40;;
52978;SDS011;63430;53.186;6.598;2024-03-17T19:21:20;18.95;;;13.20;;
52978;SDS011;63430;53.186;6.598;2024-03-17T19:26:24;17.30;;;13.02;;
52978;SDS011;63430;53.186;6.598;2024-03-17T19:31:28;21.50;;;14.27;;
52978;SDS011;63430;53.186;6.598;2024-03-17T19:36:32;19.02;;;14.10;;
52978;SDS011;63430;53.186;6.598;2024-03-17T19:41:33;18.15;;;13.50;;
52978;SDS011;63430;53.186;6.598;2024-03-17T19:46:38;19.60;;;13.63;;
52978;SDS011;63430;53.186;6.598;2024-03-17T19:51:42;21.35;;;15.43;;
52978;SDS011;63430;53.186;6.598;2024-03-17T19:56:43;20.63;;;14.68;;
52978;SDS011;63430;53.186;6.598;2024-03-17T20:01:45;22.95;;;14.55;;
52978;SDS011;63430;53.186;6.598;2024-03-17T20:06:49;18.30;;;14.13;;
52978;SDS011;63430;53.186;6.598;2024-03-17T20:11:51;19.33;;;14.93;;
52978;SDS011;63430;53.186;6.598;2024-03-17T20:16:53;23.60;;;15.30;;
52978;SDS011;63430;53.186;6.598;2024-03-17T20:21:57;20.55;;;15.30;;
52978;SDS011;63430;53.186;6.598;2024-03-17T20:26:59;20.48;;;15.65;;
52978;SDS011;63430;53.186;6.598;2024-03-17T20:32:01;21.15;;;15.00;;
52978;SDS011;63430;53.186;6.598;2024-03-17T20:37:06;26.30;;;16.33;;
52978;SDS011;63430;53.186;6.598;2024-03-17T20:42:07;21.52;;;16.20;;
52978;SDS011;63430;53.186;6.598;2024-03-17T20:47:09;23.52;;;16.10;;
52978;SDS011;63430;53.186;6.598;2024-03-17T20:52:13;24.05;;;16.73;;
52978;SDS011;63430;53.186;6.598;2024-03-17T20:57:15;22.02;;;16.52;;
52978;SDS011;63430;53.186;6.598;2024-03-17T21:02:16;24.50;;;16.33;;
52978;SDS011;63430;53.186;6.598;2024-03-17T21:07:21;22.30;;;16.20;;
52978;SDS011;63430;53.186;6.598;2024-03-17T21:12:22;23.35;;;16.70;;
52978;SDS011;63430;53.186;6.598;2024-03-17T21:17:23;25.83;;;16.27;;
52978;SDS011;63430;53.186;6.598;2024-03-17T21:22:28;25.33;;;16.45;;
52978;SDS011;63430;53.186;6.598;2024-03-17T21:27:30;22.65;;;16.50;;
52978;SDS011;63430;53.186;6.598;2024-03-17T21:32:32;21.52;;;15.35;;
52978;SDS011;63430;53.186;6.598;2024-03-17T21:37:36;23.33;;;16.02;;
52978;SDS011;63430;53.186;6.598;2024-03-17T21:42:38;21.95;;;16.55;;
52978;SDS011;63430;53.186;6.598;2024-03-17T21:47:40;23.65;;;15.98;;
52978;SDS011;63430;53.186;6.598;2024-03-17T21:52:45;21.55;;;15.82;;
52978;SDS011;63430;53.186;6.598;2024-03-17T21:57:47;20.92;;;16.25;;
52978;SDS011;63430;53.186;6.598;2024-03-17T22:02:48;20.92;;;14.93;;
52978;SDS011;63430;53.186;6.598;2024-03-17T22:07:52;23.05;;;15.57;;
52978;SDS011;63430;53.186;6.598;2024-03-17T22:12:54;23.13;;;16.02;;
52978;SDS011;63430;53.186;6.598;2024-03-17T22:17:56;22.55;;;15.80;;
52978;SDS011;63430;53.186;6.598;2024-03-17T22:23:00;23.17;;;15.93;;
52978;SDS011;63430;53.186;6.598;2024-03-17T22:28:02;18.02;;;14.68;;
52978;SDS011;63430;53.186;6.598;2024-03-17T22:33:04;21.35;;;15.20;;
52978;SDS011;63430;53.186;6.598;2024-03-17T22:38:08;21.42;;;15.50;;
52978;SDS011;63430;53.186;6.598;2024-03-17T22:43:10;23.98;;;16.65;;
52978;SDS011;63430;53.186;6.598;2024-03-17T22:48:11;19.67;;;15.18;;
52978;SDS011;63430;53.186;6.598;2024-03-17T22:53:16;19.48;;;15.02;;
52978;SDS011;63430;53.186;6.598;2024-03-17T22:58:19;24.65;;;16.25;;
52978;SDS011;63430;53.186;6.598;2024-03-17T23:03:21;20.17;;;14.38;;
52978;SDS011;63430;53.186;6.598;2024-03-17T23:08:27;21.83;;;15.05;;
52978;SDS011;63430;53.186;6.598;2024-03-17T23:13:31;21.40;;;15.00;;
52978;SDS011;63430;53.186;6.598;2024-03-17T23:18:33;22.20;;;16.27;;
52978;SDS011;63430;53.186;6.598;2024-03-17T23:23:39;21.02;;;15.60;;
52978;SDS011;63430;53.186;6.598;2024-03-17T23:28:41;20.90;;;14.93;;
52978;SDS011;63430;53.186;6.598;2024-03-17T23:33:42;22.17;;;15.10;;
52978;SDS011;63430;53.186;6.598;2024-03-17T23:38:46;22.60;;;14.98;;
52978;SDS011;63430;53.186;6.598;2024-03-17T23:43:51;20.00;;;14.95;;
52978;SDS011;63430;53.186;6.598;2024-03-17T23:48:52;24.15;;;16.05;;
52978;SDS011;63430;53.186;6.598;2024-03-17T23:53:56;25.02;;;15.52;;
52978;SDS011;63430;53.186;6.598;2024-03-17T23:58:58;19.52;;;15.43;;
